Terminal Aerodrome Forecast
Issued by NWS Mt. Holly, NJ

Home | Current Version | Previous Version | Text Only | Print | Product List | Glossary On
Versions: 1 2 3 4 5 6 7 8 9 10 11 12 13 14 15 16 17 18 19 20 21 22 23 24 25 26
836
FTUS41 KPHI 050315 AAA
TAFACY
TAF AMD
KACY 050315Z 0503/0524 05008KT P6SM OVC012
      TEMPO 0504/0508 6SM -DZ BR BKN009
     FM051400 02012G20KT P6SM OVC012
     FM051700 03012G20KT P6SM OVC020=

USA.gov is the U.S. government's official web portal to all federal, state and local government web resources and services.